• METAR

    LHBP Budapest Liszt Ferenc repülőtér METAR

    LHBP 241000Z 30006KT 9999 SCT015 BKN022 14/10 Q1021 BECMG SCT020 BKN030

    QNH légnyomás:1021hpa
    Hőmérséklet/temperature: 14°C
    Harmatpont/Dew Point Temp: 10°C

    LHDC Debreceni repülőtér METAR

    LHDC 240945Z 17004KT 7000 BKN016 14/11 Q1021 NOSIG

    QNH légnyomás:1021hpa
    Hőmérskélet/temperature: 14°C
    Harmatpont/Dew Point Temp: 11°C

    LHPR Győr-pér repülőtér METAR

    LHPR 240945Z VRB02KT 9999 BKN013 14/11 Q1021 RMK GRN

    QNH légnyomás:1021hpa
    Hőmérskélet/temperature: 14°C
    Harmatpont/Dew Point Temp: 11°C

    lhsm Sármellék repülőtér METAR

    LHSM 240945Z 35003KT 9999 FEW026 SCT083 18/12 Q1021 NOSIG

    QNH légnyomás:1021hpa
    Hőmérskélet/temperature: 18°C
    Harmatpont/Dew Point Temp: 12°C

    lhpp Pécs-pogány repülőtér METAR

    LHPP 240945Z 34002KT 9999 FEW023 BKN083 16/10 Q1021

    QNH légnyomás:1021hpa
    Hőmérskélet/temperature: 16°C
    Harmatpont/Dew Point Temp: 10°C

    LHKE Kecskemét repülőtér METAR

    LHKE 240945Z 00000KT 6000 BKN013 OVC022 14/10 Q1021 NOSIG RMK GRN

    QNH légnyomás:1021hpa
    Hőmérskélet/temperature: 14°C
    Harmatpont/Dew Point Temp: 10°C

    LHSN Szolnok repülőtér METAR

    LHSN 240945Z 09004KT 9999 BKN023 SCT033 15/10 Q1021 NOSIG RMK WHT

    QNH légnyomás:1021hpa
    Hőmérskélet/temperature: 15°C
    Harmatpont/Dew Point Temp: 10°C

    LHUD szeged repülőtér METAR

    LHUD 240945Z 31003KT 9999 SCT016 BKN026 15/11 Q1021

    QNH légnyomás:1021hpa
    Hőmérskélet/temperature: 15°C
    Harmatpont/Dew Point Temp: 11°C

  • TÉRKÉPEK

    Felhőkép

    Széltérkép

    Hőtérkép

    radarkép

    map

    map

  • Műholdképek

    Magyarország műholdkép

    Europa műholdkép

    Europa szinoptikus térkép

  • ELTE ELŐREJELZÉS (2 NAP LHBP)

    2 napos légnyomás előrejelzés Budapest LHBP

    2 napos szél előrejelzés Budapest LHBP

    2 napos termik trigger előrejelzés Budapest LHBP

    2 napos felhőzet előrejelzés Budapest LHBP

    2 napos thermal index profile előrejelzés Budapest LHBP

    2 napos átlag emelés előrejelzés Budapest LHBP

    2 napos felhő alap előrejelzés Budapest LHBP

    2 napos hőmérséklet advekció előrejelzés Budapest LHBP

  • VILLÁMRADAR

  • ELŐREJELZÉS

  • WINDFINDER ELŐREJELZÉS

  • RIASZTÁS - VÉSZJELZÉS

Repülésmeteorológia, aktuális időjárási helyzet és előrejelzés

Repülésmeteorológia, várható időjárás jelentések, előrejelzések és riasztások. METAR, TAF adatok, aktuális időjárás helyzetek és térképek.

A meteorológia kialakulásában és fejlődésében kiemelt szerep jutott a repülésnek, illetve a repülés technikai fejlődésének. A repülésmeteorológia elsődlegesen a repülés biztonságát, másodlagosan a repülés gazdaságosságát hivatott szolgálni. Eleinte a katonai repülőgépeknek, később a polgári repülésnek, ma már a sportrepülő pilótáknak, és a mezőgazdasági pilótáknak is egyaránt szükségük van a naprakész meteorológiai információkra.

Repülésmeteorológia oldalunkon összegyűjtöttük a legnépszerűbb és legjobb időjárás oldalak hivatkozásait, hogy repülés előtt vagy akár közben minden fontos forrást egyszerűen és gyorsan megtalálj. Magyarország várható időjárása, légállapoti diagramok, termik előrejelzés, METAR adatok, vészjelzések és figyelmeztetések. A képernyő szélén közvetlenül pedig pozíciód aktuális időjárási paramétereit is megtalálod.

JOGI NYILATKOZAT

Az oldal használatával a látogató elfogadja az alábbi felhasználási feltételeket:

Az oldalon feltüntetett repülésmeteorológia információkat mindenki csak saját felelősségre használhatja. A feltüntetett külső forrásokból származó információk pontosságáért és tartalmáért, valamint az esetlegesen ebből adódó bármilyen káresemény kapcsán a FLYTIME.HU nem vállal felelősséget!